EDT,Max TemperatureF,Mean TemperatureF,Min TemperatureF,Max Dew PointF,MeanDew PointF,Min DewpointF,Max Humidity, Mean Humidity, Min Humidity, Max Sea Level PressureIn, Mean Sea Level PressureIn, Min Sea Level PressureIn, Max VisibilityMiles, Mean VisibilityMiles, Min VisibilityMiles, Max Wind SpeedMPH, Mean Wind SpeedMPH, Max Gust SpeedMPH,PrecipitationIn, CloudCover, Events, WindDirDegrees
2012-9-1,87,80,72,77,74,72,100,85,64,30.13,30.07,30.00,10,9,2,18,3,24,0.00,3,Rain,197
2012-9-2,82,77,72,76,74,72,100,91,73,30.01,29.93,29.85,10,9,4,13,3,29,0.00,4,Rain,119
2012-9-3,77,74,72,76,73,72,100,100,92,29.92,29.89,29.87,10,8,2,10,4,20,0.00,8,Rain,109
2012-9-4,87,80,72,79,74,72,100,92,65,29.92,29.89,29.84,10,8,3,8,2,16,0.00,5,Rain,243
2012-9-5,87,76,66,74,70,66,100,91,60,29.92,29.88,29.78,10,7,0,15,2,23,0.00,2,Fog-Rain,266
2012-9-6,85,72,60,75,69,60,100,91,67,29.98,29.94,29.90,10,6,0,10,2,16,0.00,3,Fog-Rain,222
2012-9-7,87,76,65,75,70,66,100,89,62,29.97,29.88,29.67,10,6,0,26,3,38,0.00,2,Fog-Rain,217
2012-9-8,67,62,58,68,63,56,100,96,67,29.87,29.76,29.67,10,9,2,16,9,34,0.00,6,Rain,318
2012-9-9,,,,,,,,,,,,,,,,,,,,,,
2012-9-10,75,65,55,61,53,48,100,64,39,30.24,30.20,30.17,10,10,10,6,2,,0.00,1,,25
2012-9-11,77,62,48,61,54,48,100,77,42,30.30,30.24,30.20,10,10,10,10,2,,0.00,0,,182
2012-9-12,82,67,52,67,59,53,100,80,45,30.31,30.26,30.22,10,10,7,13,2,17,0.00,1,,227
2012-9-13,80,70,60,69,64,57,100,82,45,30.32,30.27,30.22,10,10,10,7,1,,0.00,5,,223
2012-9-14,72,62,52,67,58,51,100,92,72,30.32,30.27,30.22,10,8,0,14,2,18,0.00,3,Fog,8
2012-9-15,72,60,47,61,51,47,100,82,40,30.36,30.28,30.20,10,10,7,7,1,,0.00,0,,29
2012-9-16,75,62,50,60,53,49,100,78,39,30.20,30.13,30.05,10,10,2,8,1,,0.00,0,,334
2012-9-17,75,64,54,69,62,54,100,90,73,30.06,29.95,29.80,10,10,10,14,2,,0.00,5,,192
2012-9-18,67,58,47,68,58,45,100,83,54,30.05,29.79,29.64,10,10,5,15,6,26,0.00,5,Rain,311
2012-9-19,67,52,37,50,42,38,100,72,37,30.20,30.13,30.07,10,9,1,9,2,,0.00,0,,211
2012-9-20,72,56,40,61,52,40,100,81,49,30.10,30.01,29.95,10,10,1,18,3,26,0.00,3,Rain,225
2012-9-21,68,60,52,64,56,46,100,83,46,30.03,29.93,29.72,10,9,0,14,3,22,0.00,4,Fog-Rain,214
2012-9-22,72,56,40,59,49,32,100,80,38,30.17,29.95,29.76,10,9,3,28,6,39,0.00,4,Rain,264
2012-9-23,61,49,37,49,41,38,100,81,46,30.26,30.22,30.17,10,9,1,14,2,22,0.00,2,,283
2012-9-24,67,51,35,51,42,35,100,79,41,30.30,30.21,30.08,10,9,0,15,3,21,0.00,1,Fog,223
2012-9-25,64,56,47,63,55,47,100,93,68,30.08,30.03,29.97,10,10,10,14,4,20,0.00,5,Rain,203
2012-9-26,72,66,60,70,65,60,100,96,81,30.12,30.05,29.98,10,8,0,15,5,23,0.00,6,Fog-Rain,223
2012-9-27,72,66,59,69,65,58,100,97,80,30.16,30.13,30.09,10,7,0,12,4,,0.00,6,Fog-Rain,250
2012-9-28,67,61,55,64,59,55,100,96,85,30.16,30.11,30.05,10,8,2,8,4,,0.00,7,,68
2012-9-29,72,61,50,59,54,50,100,81,51,30.10,30.04,29.97,10,10,3,6,2,,0.00,3,,358
2012-9-30,70,57,44,56,49,44,100,79,46,29.98,29.91,29.86,10,8,0,14,2,,0.00,0,Fog,26